Time;durP1;ratioP1;P1;durP2;ratioP2;P2;SDS_P1;SDS_P2;PMS_P1;PMS_P2;Temp;Humidity;BMP_temperature;BMP_pressure;BME280_temperature;BME280_humidity;BME280_pressure;Samples;Min_cycle;Max_cycle;Signal;HPM_P1;HPM_P2
2022/11/10 00:01:51;;;;;;;;;;;9.10;99.90;;;;;;5011317;28;19921;-85
2022/11/10 00:04:17;;;;;;;;;;;9.20;99.90;;;;;;5043359;28;19920;-86
2022/11/10 00:06:45;;;;;;;;;;;10.00;99.90;;;;;;5030049;28;19956;-85
2022/11/10 00:09:11;;;;;;;;;;;9.10;99.90;;;;;;5045986;28;19931;-86
2022/11/10 00:11:36;;;;;;;;;;;9.20;99.90;;;;;;5027454;28;19920;-86
2022/11/10 00:17:03;;;;;;;;;;;9.10;99.90;;;;;;5042803;28;19978;-85
2022/11/10 00:19:33;;;;;;;;;;;9.10;99.90;;;;;;5028448;28;19921;-85
2022/11/10 00:22:00;;;;;;;;;;;9.10;99.90;;;;;;5032270;28;19952;-85
2022/11/10 00:24:26;;;;;;;;;;;9.10;99.90;;;;;;5017999;28;19928;-85
2022/11/10 00:26:51;;;;;;;;;;;9.00;99.90;;;;;;5046260;28;19921;-85
2022/11/10 00:29:17;;;;;;;;;;;9.10;99.90;;;;;;5029754;28;19925;-85
2022/11/10 00:31:42;;;;;;;;;;;9.10;99.90;;;;;;5035937;28;19979;-85
2022/11/10 00:34:13;;;;;;;;;;;9.10;99.90;;;;;;5013756;28;19932;-86
2022/11/10 00:36:45;;;;;;;;;;;9.10;99.90;;;;;;5045609;28;20298;-85
2022/11/10 00:39:11;;;;;;;;;;;9.00;99.90;;;;;;5029761;28;19928;-85
2022/11/10 00:41:37;;;;;;;;;;;9.10;99.90;;;;;;5029225;28;20358;-85
2022/11/10 00:44:02;;;;;;;;;;;9.00;99.90;;;;;;5028469;28;19932;-86
2022/11/10 00:46:28;;;;;;;;;;;9.00;99.90;;;;;;5044194;28;19924;-85
2022/11/10 00:48:53;;;;;;;;;;;9.00;99.90;;;;;;5049502;28;19925;-85
2022/11/10 00:51:24;;;;;;;;;;;8.90;99.90;;;;;;5011602;28;20524;-85
2022/11/10 00:53:50;;;;;;;;;;;8.90;99.90;;;;;;5026722;28;19938;-85
2022/11/10 00:56:19;;;;;;;;;;;8.90;99.90;;;;;;5014223;28;20431;-85
2022/11/10 00:58:45;;;;;;;;;;;8.90;99.90;;;;;;5027947;28;20182;-85
2022/11/10 01:01:14;;;;;;;;;;;8.90;99.90;;;;;;5031464;28;20002;-85
2022/11/10 01:03:40;;;;;;;;;;;8.80;99.90;;;;;;5030217;28;20015;-85
2022/11/10 01:06:07;;;;;;;;;;;8.80;99.90;;;;;;5045895;28;20012;-85
2022/11/10 01:08:36;;;;;;;;;;;8.80;99.90;;;;;;5030883;28;20358;-85
2022/11/10 01:11:12;;;;;;;;;;;8.80;99.90;;;;;;5045350;28;19935;-85
2022/11/10 01:13:38;;;;;;;;;;;8.80;99.90;;;;;;5028656;28;19940;-85
2022/11/10 01:16:05;;;;;;;;;;;8.80;99.90;;;;;;5028083;28;19920;-85
2022/11/10 01:18:43;;;;;;;;;;;8.80;99.90;;;;;;5030801;28;19925;-85
2022/11/10 01:21:08;;;;;;;;;;;8.70;99.90;;;;;;5027947;28;20417;-85
2022/11/10 01:23:34;;;;;;;;;;;8.70;99.90;;;;;;5013887;28;19967;-85
2022/11/10 01:26:04;;;;;;;;;;;8.70;99.90;;;;;;5027370;28;19921;-85
2022/11/10 01:28:30;;;;;;;;;;;8.70;99.90;;;;;;5030007;28;19933;-85
2022/11/10 01:31:06;;;;;;;;;;;8.70;99.90;;;;;;5030643;28;19925;-85
2022/11/10 01:33:33;;;;;;;;;;;8.80;99.90;;;;;;5029002;28;20285;-85
2022/11/10 01:35:58;;;;;;;;;;;8.60;99.90;;;;;;5043418;28;20527;-85
2022/11/10 01:38:28;;;;;;;;;;;8.60;99.90;;;;;;5030826;28;19928;-85
2022/11/10 01:40:54;;;;;;;;;;;8.60;99.90;;;;;;5027930;28;20291;-85
2022/11/10 01:43:20;;;;;;;;;;;8.60;99.90;;;;;;5030278;28;20411;-85
2022/11/10 01:45:51;;;;;;;;;;;8.60;99.90;;;;;;5027952;28;20015;-85
2022/11/10 01:48:32;;;;;;;;;;;8.60;99.90;;;;;;5044632;28;20015;-84
2022/11/10 01:51:03;;;;;;;;;;;8.50;99.90;;;;;;5041118;28;19925;-85
2022/11/10 01:53:30;;;;;;;;;;;8.50;99.90;;;;;;5027976;28;20013;-85
2022/11/10 01:55:56;;;;;;;;;;;8.60;99.90;;;;;;5026641;28;20030;-85
2022/11/10 01:58:25;;;;;;;;;;;8.50;99.90;;;;;;5010622;28;19925;-85
2022/11/10 02:00:50;;;;;;;;;;;8.50;99.90;;;;;;5029178;28;19921;-85
2022/11/10 02:03:22;;;;;;;;;;;8.60;99.90;;;;;;5030866;28;19935;-85
2022/11/10 02:05:49;;;;;;;;;;;8.30;99.90;;;;;;5043299;28;19951;-85
2022/11/10 02:08:26;;;;;;;;;;;8.50;99.90;;;;;;5030522;28;19972;-84
2022/11/10 02:10:54;;;;;;;;;;;8.50;99.90;;;;;;5011667;28;19920;-85
2022/11/10 02:13:20;;;;;;;;;;;8.50;99.90;;;;;;5025405;28;19977;-85
2022/11/10 02:15:45;;;;;;;;;;;8.50;99.90;;;;;;5047269;28;20055;-85
2022/11/10 02:18:11;;;;;;;;;;;8.50;99.90;;;;;;5049799;28;19924;-85
2022/11/10 02:20:36;;;;;;;;;;;8.40;99.90;;;;;;5029959;28;19927;-85
2022/11/10 02:23:35;;;;;;;;;;;8.50;99.90;;;;;;5032950;28;20332;-85
2022/11/10 02:26:01;;;;;;;;;;;8.50;99.90;;;;;;4994182;28;20246;-85
2022/11/10 02:28:27;;;;;;;;;;;8.50;99.90;;;;;;5031584;28;19921;-85
2022/11/10 02:30:53;;;;;;;;;;;8.50;99.90;;;;;;5048476;28;20061;-85
2022/11/10 02:33:19;;;;;;;;;;;8.50;99.90;;;;;;5028217;28;20425;-85
2022/11/10 02:35:46;;;;;;;;;;;8.50;99.90;;;;;;5044895;28;19929;-85
2022/11/10 02:38:12;;;;;;;;;;;8.30;99.90;;;;;;5027355;28;19921;-84
2022/11/10 02:40:37;;;;;;;;;;;8.50;99.90;;;;;;5048164;28;20003;-84
2022/11/10 02:43:08;;;;;;;;;;;8.50;99.90;;;;;;5032825;28;20004;-85
2022/11/10 02:45:34;;;;;;;;;;;8.50;99.90;;;;;;5047684;28;19920;-85
2022/11/10 02:47:59;;;;;;;;;;;8.50;99.90;;;;;;5029847;28;19921;-85
2022/11/10 02:50:25;;;;;;;;;;;8.60;99.90;;;;;;5031677;28;19920;-85
2022/11/10 02:52:50;;;;;;;;;;;8.50;99.90;;;;;;5045202;28;19927;-84
2022/11/10 02:55:16;;;;;;;;;;;8.60;99.90;;;;;;5047996;28;19924;-85
2022/11/10 02:57:41;;;;;;;;;;;8.60;99.90;;;;;;5028808;28;19929;-85
2022/11/10 03:00:07;;;;;;;;;;;9.90;99.90;;;;;;5043525;28;20289;-85
2022/11/10 03:02:33;;;;;;;;;;;8.60;99.90;;;;;;5030625;28;19998;-85
2022/11/10 03:04:58;;;;;;;;;;;8.60;99.90;;;;;;5031058;28;19924;-85
2022/11/10 03:07:24;;;;;;;;;;;8.60;99.90;;;;;;5047681;28;19921;-85
2022/11/10 03:09:49;;;;;;;;;;;8.70;99.90;;;;;;5049459;28;19943;-85
2022/11/10 03:12:15;;;;;;;;;;;8.60;99.90;;;;;;5046944;28;20390;-85
2022/11/10 03:14:41;;;;;;;;;;;8.60;99.90;;;;;;5031054;28;20187;-85
2022/11/10 03:17:07;;;;;;;;;;;8.60;99.90;;;;;;5031336;28;20429;-84
2022/11/10 03:19:32;;;;;;;;;;;8.60;99.90;;;;;;5054884;28;19947;-85
2022/11/10 03:21:58;;;;;;;;;;;8.60;99.90;;;;;;5033218;28;19944;-85
2022/11/10 03:24:23;;;;;;;;;;;8.60;99.90;;;;;;5035827;28;19932;-85
2022/11/10 03:26:49;;;;;;;;;;;8.60;99.90;;;;;;5054240;28;19992;-85
2022/11/10 03:29:14;;;;;;;;;;;8.60;99.90;;;;;;5067917;28;19967;-85
2022/11/10 03:31:40;;;;;;;;;;;8.60;99.90;;;;;;5051145;28;19947;-84
2022/11/10 03:34:05;;;;;;;;;;;8.60;99.90;;;;;;5062458;28;19935;-84
2022/11/10 03:36:31;;;;;;;;;;;8.60;99.90;;;;;;5028900;28;19928;-84
2022/11/10 03:38:56;;;;;;;;;;;8.60;99.90;;;;;;5019546;28;20049;-84
2022/11/10 03:41:22;;;;;;;;;;;8.60;99.90;;;;;;5049850;28;19921;-84
2022/11/10 03:43:48;;;;;;;;;;;8.60;99.90;;;;;;5032832;28;19925;-85
2022/11/10 03:46:14;;;;;;;;;;;8.60;99.90;;;;;;5048176;28;19928;-85
2022/11/10 03:48:39;;;;;;;;;;;8.60;99.90;;;;;;5032859;28;19960;-85
2022/11/10 03:51:05;;;;;;;;;;;8.80;99.90;;;;;;5034265;28;19927;-85
2022/11/10 03:53:31;;;;;;;;;;;8.60;99.90;;;;;;5050018;28;20374;-84
2022/11/10 03:55:58;;;;;;;;;;;8.60;99.90;;;;;;5050723;28;19921;-85
2022/11/10 03:58:24;;;;;;;;;;;8.60;99.90;;;;;;5032999;28;19944;-85
2022/11/10 04:00:51;;;;;;;;;;;8.60;99.90;;;;;;5015334;28;20598;-84
2022/11/10 04:03:17;;;;;;;;;;;8.60;99.90;;;;;;5046568;28;19998;-85
2022/11/10 04:11:11;;;;;;;;;;;8.60;99.90;;;;;;5027699;28;19922;-85
2022/11/10 04:16:21;;;;;;;;;;;9.50;99.90;;;;;;5046631;28;20409;-85
2022/11/10 04:18:46;;;;;;;;;;;8.60;99.90;;;;;;5029812;28;19928;-85
2022/11/10 04:21:12;;;;;;;;;;;8.60;99.90;;;;;;5031841;28;19920;-85
2022/11/10 04:23:37;;;;;;;;;;;8.60;99.90;;;;;;5037439;28;20328;-85
2022/11/10 04:26:28;;;;;;;;;;;8.60;99.90;;;;;;5035256;28;19925;-84
2022/11/10 04:28:58;;;;;;;;;;;8.60;99.90;;;;;;5048112;28;19920;-85
2022/11/10 04:31:24;;;;;;;;;;;8.60;99.90;;;;;;5032804;28;19921;-84
2022/11/10 04:33:50;;;;;;;;;;;8.60;99.90;;;;;;5050888;28;20381;-85
2022/11/10 04:36:18;;;;;;;;;;;8.60;99.90;;;;;;5033318;28;20287;-84
2022/11/10 04:38:43;;;;;;;;;;;8.60;99.90;;;;;;5033732;28;19921;-85
2022/11/10 04:41:09;;;;;;;;;;;8.60;99.90;;;;;;5029201;28;19921;-85
2022/11/10 04:43:35;;;;;;;;;;;8.60;99.90;;;;;;5045714;28;19925;-85
2022/11/10 04:46:01;;;;;;;;;;;8.70;99.90;;;;;;5047160;28;19986;-84
2022/11/10 04:48:26;;;;;;;;;;;8.50;99.90;;;;;;5030540;28;19924;-85
2022/11/10 04:50:52;;;;;;;;;;;8.50;99.90;;;;;;5032175;28;20374;-85
2022/11/10 04:53:18;;;;;;;;;;;8.50;99.90;;;;;;5017410;28;19970;-85
2022/11/10 04:55:44;;;;;;;;;;;8.60;99.90;;;;;;5031349;28;19925;-84
2022/11/10 04:58:10;;;;;;;;;;;8.70;99.90;;;;;;5029484;28;20245;-85
2022/11/10 05:00:36;;;;;;;;;;;8.60;99.90;;;;;;5029168;28;19982;-84
2022/11/10 05:03:02;;;;;;;;;;;8.70;99.90;;;;;;5033557;28;20534;-85
2022/11/10 05:05:28;;;;;;;;;;;8.60;99.90;;;;;;5033304;28;19928;-85
2022/11/10 05:07:54;;;;;;;;;;;8.60;99.90;;;;;;5047556;28;19921;-85
2022/11/10 05:10:19;;;;;;;;;;;8.70;99.90;;;;;;5048800;28;19921;-85
2022/11/10 05:12:45;;;;;;;;;;;8.60;99.90;;;;;;5030065;28;19956;-85
2022/11/10 05:15:11;;;;;;;;;;;8.80;99.90;;;;;;5031586;28;19925;-85
2022/11/10 05:17:36;;;;;;;;;;;8.70;99.90;;;;;;5047184;28;20012;-85
2022/11/10 05:20:02;;;;;;;;;;;8.80;99.90;;;;;;5047063;28;20397;-85
2022/11/10 05:22:28;;;;;;;;;;;8.80;99.90;;;;;;5027891;28;19921;-84
2022/11/10 05:24:53;;;;;;;;;;;8.80;99.90;;;;;;5064134;28;19942;-85
2022/11/10 05:27:19;;;;;;;;;;;8.80;99.90;;;;;;5045960;28;20011;-84
2022/11/10 05:29:44;;;;;;;;;;;8.80;99.90;;;;;;5030978;28;19924;-85
2022/11/10 05:32:10;;;;;;;;;;;8.80;99.90;;;;;;5016774;28;19921;-85
2022/11/10 05:34:36;;;;;;;;;;;8.90;99.90;;;;;;5027340;28;19925;-84
2022/11/10 05:37:01;;;;;;;;;;;8.90;99.90;;;;;;5030658;28;20391;-85
2022/11/10 05:39:27;;;;;;;;;;;8.90;99.90;;;;;;5014479;28;20404;-84
2022/11/10 05:41:52;;;;;;;;;;;8.90;99.90;;;;;;5029166;28;19927;-84
2022/11/10 05:44:18;;;;;;;;;;;9.00;99.90;;;;;;5026812;28;19931;-84
2022/11/10 05:46:44;;;;;;;;;;;9.20;99.90;;;;;;5027439;28;19978;-84
2022/11/10 05:49:09;;;;;;;;;;;9.00;99.90;;;;;;5030441;28;19952;-84
2022/11/10 05:51:35;;;;;;;;;;;9.00;99.90;;;;;;5027328;28;21179;-84
2022/11/10 05:54:00;;;;;;;;;;;9.40;99.90;;;;;;5027170;28;19928;-84
2022/11/10 05:56:26;;;;;;;;;;;9.10;99.90;;;;;;5031447;28;20443;-84
2022/11/10 05:58:51;;;;;;;;;;;9.00;99.90;;;;;;5028759;28;19920;-84
2022/11/10 06:01:17;;;;;;;;;;;9.10;99.90;;;;;;5029165;28;20015;-84
2022/11/10 06:03:42;;;;;;;;;;;9.10;99.90;;;;;;5046463;28;20424;-84
2022/11/10 06:06:08;;;;;;;;;;;9.10;99.90;;;;;;5043276;28;20382;-84
2022/11/10 06:08:36;;;;;;;;;;;9.10;99.90;;;;;;5030579;28;19981;-84
2022/11/10 06:11:01;;;;;;;;;;;9.10;99.90;;;;;;5012710;28;20405;-84
2022/11/10 06:13:28;;;;;;;;;;;9.10;99.90;;;;;;5045947;28;19968;-84
2022/11/10 06:15:53;;;;;;;;;;;9.10;99.90;;;;;;5028132;28;19928;-84
2022/11/10 06:18:19;;;;;;;;;;;9.10;99.90;;;;;;5028548;28;20341;-84
2022/11/10 06:20:45;;;;;;;;;;;9.10;99.90;;;;;;5045122;28;19921;-84
2022/11/10 06:23:11;;;;;;;;;;;9.10;99.90;;;;;;5029454;28;19921;-84
2022/11/10 06:25:37;;;;;;;;;;;9.10;99.90;;;;;;5028578;28;20377;-84
2022/11/10 06:28:03;;;;;;;;;;;9.10;99.90;;;;;;5045438;28;20452;-84
2022/11/10 06:30:30;;;;;;;;;;;9.20;99.90;;;;;;5046076;28;19924;-83
2022/11/10 06:32:55;;;;;;;;;;;9.20;99.90;;;;;;5046618;28;19971;-84
2022/11/10 06:35:21;;;;;;;;;;;9.20;99.90;;;;;;5029454;28;20001;-84
2022/11/10 06:38:06;;;;;;;;;;;9.10;99.90;;;;;;5042597;28;19925;-84
2022/11/10 06:40:32;;;;;;;;;;;9.20;99.90;;;;;;5043770;28;19929;-84
2022/11/10 06:42:58;;;;;;;;;;;9.20;99.90;;;;;;5045542;28;19974;-84
2022/11/10 06:45:24;;;;;;;;;;;9.10;99.90;;;;;;5027676;28;21242;-84
2022/11/10 06:47:59;;;;;;;;;;;9.10;99.90;;;;;;5030508;28;19921;-85
2022/11/10 06:50:25;;;;;;;;;;;9.10;99.90;;;;;;5042804;28;20408;-84
2022/11/10 06:52:54;;;;;;;;;;;9.10;99.90;;;;;;5011437;28;19920;-84
2022/11/10 06:55:20;;;;;;;;;;;9.10;99.90;;;;;;5026526;28;19928;-84
2022/11/10 06:57:45;;;;;;;;;;;9.10;99.90;;;;;;5045845;28;19929;-84
2022/11/10 07:00:11;;;;;;;;;;;9.10;99.90;;;;;;5010490;28;19964;-84
2022/11/10 07:02:37;;;;;;;;;;;9.10;99.90;;;;;;5046083;28;19921;-83
2022/11/10 07:05:02;;;;;;;;;;;9.10;99.90;;;;;;5024536;28;19967;-83
2022/11/10 07:07:28;;;;;;;;;;;9.10;99.90;;;;;;5029725;28;19921;-82
2022/11/10 07:09:53;;;;;;;;;;;9.10;99.90;;;;;;5027598;28;19929;-82
2022/11/10 07:12:19;;;;;;;;;;;9.10;99.90;;;;;;5011337;28;19928;-83
2022/11/10 07:14:44;;;;;;;;;;;9.20;99.90;;;;;;5044825;28;19932;-82
2022/11/10 07:17:10;;;;;;;;;;;9.10;99.90;;;;;;5028610;28;19950;-83
2022/11/10 07:19:35;;;;;;;;;;;9.20;99.90;;;;;;5032720;28;19921;-81
2022/11/10 07:22:01;;;;;;;;;;;9.10;99.90;;;;;;5042047;28;20228;-83
2022/11/10 07:24:29;;;;;;;;;;;9.10;99.90;;;;;;5028266;28;19921;-83
2022/11/10 07:26:58;;;;;;;;;;;9.20;99.90;;;;;;5022499;28;19929;-83
2022/11/10 07:29:24;;;;;;;;;;;9.20;99.90;;;;;;5023232;28;19921;-83
2022/11/10 07:31:49;;;;;;;;;;;9.20;99.90;;;;;;5022182;28;19925;-83
2022/11/10 07:34:15;;;;;;;;;;;9.30;99.90;;;;;;5042646;28;19956;-83
2022/11/10 07:36:40;;;;;;;;;;;9.40;99.90;;;;;;5023810;28;19929;-82
2022/11/10 07:39:06;;;;;;;;;;;9.40;99.90;;;;;;5039869;28;19932;-83
2022/11/10 07:41:31;;;;;;;;;;;9.50;99.90;;;;;;5021805;28;20484;-83
2022/11/10 07:43:57;;;;;;;;;;;10.10;99.90;;;;;;5041425;28;19939;-83
2022/11/10 07:46:23;;;;;;;;;;;9.50;99.90;;;;;;5000336;28;19932;-82
2022/11/10 07:48:49;;;;;;;;;;;9.60;99.90;;;;;;5010518;28;19925;-82
2022/11/10 07:51:14;;;;;;;;;;;9.60;99.90;;;;;;5015408;28;19975;-82
2022/11/10 07:53:40;;;;;;;;;;;9.70;99.90;;;;;;5013365;28;20298;-83
2022/11/10 07:56:06;;;;;;;;;;;9.70;99.90;;;;;;5032473;28;20899;-82
2022/11/10 07:58:32;;;;;;;;;;;9.70;99.90;;;;;;5029820;28;20016;-83
2022/11/10 08:00:58;;;;;;;;;;;9.70;99.90;;;;;;5033546;28;19925;-82
2022/11/10 08:03:24;;;;;;;;;;;9.70;99.90;;;;;;5018855;28;19920;-82
2022/11/10 08:05:49;;;;;;;;;;;9.70;99.90;;;;;;5015417;28;19936;-83
2022/11/10 08:08:15;;;;;;;;;;;9.70;99.90;;;;;;5033975;28;19921;-82
2022/11/10 08:10:41;;;;;;;;;;;9.70;99.90;;;;;;5032773;28;19928;-84
2022/11/10 08:13:07;;;;;;;;;;;9.70;99.90;;;;;;5035113;28;19937;-84
2022/11/10 08:15:33;;;;;;;;;;;9.80;99.90;;;;;;5027380;28;19921;-85
2022/11/10 08:18:02;;;;;;;;;;;9.80;99.90;;;;;;5026522;28;19936;-86
2022/11/10 08:20:28;;;;;;;;;;;9.80;99.90;;;;;;5028578;28;19929;-85
2022/11/10 08:23:04;;;;;;;;;;;9.80;99.90;;;;;;5045397;28;19921;-84
2022/11/10 08:25:31;;;;;;;;;;;9.80;99.90;;;;;;5045516;28;19928;-86
2022/11/10 08:27:58;;;;;;;;;;;9.80;99.90;;;;;;5031320;28;19975;-85
2022/11/10 08:30:23;;;;;;;;;;;9.90;99.90;;;;;;5047910;28;19975;-85
2022/11/10 08:32:51;;;;;;;;;;;9.90;99.90;;;;;;5040590;28;19921;-85
2022/11/10 08:35:17;;;;;;;;;;;10.00;99.90;;;;;;5062229;28;19935;-85
2022/11/10 08:37:43;;;;;;;;;;;9.90;99.90;;;;;;5048074;28;19921;-85
2022/11/10 08:40:08;;;;;;;;;;;10.00;99.90;;;;;;5036521;28;19925;-85
2022/11/10 08:42:34;;;;;;;;;;;10.10;99.90;;;;;;5031602;28;19916;-85
2022/11/10 08:45:00;;;;;;;;;;;10.30;99.90;;;;;;5048796;28;19937;-86
2022/11/10 08:47:25;;;;;;;;;;;10.60;99.90;;;;;;5015891;28;19929;-85
2022/11/10 08:49:51;;;;;;;;;;;10.80;99.90;;;;;;5031765;28;19956;-85
2022/11/10 08:52:16;;;;;;;;;;;11.10;99.90;;;;;;5029928;28;19921;-85
2022/11/10 08:54:42;;;;;;;;;;;11.10;99.90;;;;;;5031629;28;19925;-85
2022/11/10 08:57:07;;;;;;;;;;;11.10;99.90;;;;;;5031495;28;20006;-85
2022/11/10 08:59:33;;;;;;;;;;;11.00;99.90;;;;;;5015188;28;20266;-86
2022/11/10 09:01:58;;;;;;;;;;;11.00;99.90;;;;;;5031388;28;19925;-85
2022/11/10 09:04:24;;;;;;;;;;;10.90;99.90;;;;;;5031877;28;19927;-85
2022/11/10 09:06:49;;;;;;;;;;;11.00;99.90;;;;;;5048062;28;20415;-85
2022/11/10 09:09:15;;;;;;;;;;;11.00;99.90;;;;;;5033390;28;19928;-85
2022/11/10 09:11:40;;;;;;;;;;;11.00;99.90;;;;;;5034650;28;19920;-85
2022/11/10 09:14:06;;;;;;;;;;;11.00;99.90;;;;;;5043574;28;19925;-85
2022/11/10 09:16:32;;;;;;;;;;;11.10;99.90;;;;;;5035038;28;19964;-85
2022/11/10 09:18:57;;;;;;;;;;;11.00;99.90;;;;;;5018016;28;20285;-85
2022/11/10 09:21:23;;;;;;;;;;;11.00;99.90;;;;;;5040383;28;19979;-85
2022/11/10 09:23:48;;;;;;;;;;;11.00;99.90;;;;;;5035182;28;19924;-85
2022/11/10 09:26:14;;;;;;;;;;;11.00;99.90;;;;;;5041721;28;19943;-85
2022/11/10 09:28:39;;;;;;;;;;;11.00;99.90;;;;;;5033420;28;19921;-85
2022/11/10 09:31:05;;;;;;;;;;;11.10;99.90;;;;;;5051128;28;19966;-85
2022/11/10 09:33:30;;;;;;;;;;;11.10;99.90;;;;;;5035578;28;19968;-85
2022/11/10 09:35:58;;;;;;;;;;;11.10;99.90;;;;;;5045471;28;19964;-84
2022/11/10 09:38:23;;;;;;;;;;;11.20;99.90;;;;;;5050344;28;19920;-85
2022/11/10 09:41:03;;;;;;;;;;;11.20;99.90;;;;;;5034267;28;19931;-85
2022/11/10 09:43:28;;;;;;;;;;;11.20;99.90;;;;;;5045889;28;19931;-85
2022/11/10 09:45:56;;;;;;;;;;;11.20;99.90;;;;;;5051154;28;19921;-85
2022/11/10 09:48:27;;;;;;;;;;;11.30;99.90;;;;;;5041218;28;19987;-84
2022/11/10 09:50:55;;;;;;;;;;;11.30;99.90;;;;;;5050827;28;19921;-84
2022/11/10 09:53:23;;;;;;;;;;;11.30;99.90;;;;;;5042260;28;19929;-84
2022/11/10 09:55:51;;;;;;;;;;;11.30;99.90;;;;;;5049892;28;20393;-85
2022/11/10 09:58:18;;;;;;;;;;;11.40;99.90;;;;;;5049954;28;19920;-85
2022/11/10 10:00:48;;;;;;;;;;;11.40;99.90;;;;;;5037350;28;19964;-84
2022/11/10 10:03:18;;;;;;;;;;;11.40;99.90;;;;;;5033527;28;19935;-85
2022/11/10 10:05:53;;;;;;;;;;;11.50;99.90;;;;;;5033927;28;19928;-84
2022/11/10 10:08:19;;;;;;;;;;;11.50;99.90;;;;;;5033918;28;19928;-85
2022/11/10 10:11:12;;;;;;;;;;;11.50;99.90;;;;;;5033921;28;19982;-84
2022/11/10 10:13:50;;;;;;;;;;;11.60;99.90;;;;;;5032885;28;19924;-85
2022/11/10 10:16:31;;;;;;;;;;;11.70;99.90;;;;;;5050562;28;19921;-84
2022/11/10 10:18:59;;;;;;;;;;;11.70;99.90;;;;;;5033513;28;19983;-84
2022/11/10 10:21:39;;;;;;;;;;;11.80;99.90;;;;;;5038072;28;19977;-85
2022/11/10 10:24:10;;;;;;;;;;;11.90;99.90;;;;;;5050275;28;20015;-85
2022/11/10 10:26:38;;;;;;;;;;;11.90;99.90;;;;;;5038198;28;19921;-84
2022/11/10 10:29:08;;;;;;;;;;;12.00;99.90;;;;;;5050086;28;20398;-84
2022/11/10 10:31:35;;;;;;;;;;;12.00;99.90;;;;;;5033454;28;19921;-84
2022/11/10 10:34:00;;;;;;;;;;;12.00;99.90;;;;;;5027346;28;19971;-85
2022/11/10 10:36:28;;;;;;;;;;;12.00;99.90;;;;;;5033150;28;19976;-85
2022/11/10 10:38:55;;;;;;;;;;;12.00;99.90;;;;;;5032864;28;19920;-85
2022/11/10 10:41:25;;;;;;;;;;;12.00;99.90;;;;;;5027193;28;19924;-84
2022/11/10 10:43:51;;;;;;;;;;;12.10;99.90;;;;;;5032556;28;20463;-84
2022/11/10 10:46:23;;;;;;;;;;;12.10;99.90;;;;;;5026236;28;19921;-85
2022/11/10 10:49:04;;;;;;;;;;;12.20;99.90;;;;;;5048297;28;19928;-85
2022/11/10 10:51:30;;;;;;;;;;;12.30;99.90;;;;;;5028580;28;19932;-84
2022/11/10 10:53:55;;;;;;;;;;;12.30;99.90;;;;;;5049611;28;20302;-85
2022/11/10 10:56:23;;;;;;;;;;;12.40;99.90;;;;;;5044889;28;19927;-85
2022/11/10 10:58:51;;;;;;;;;;;12.40;99.90;;;;;;5049699;28;20016;-85
2022/11/10 11:01:17;;;;;;;;;;;12.40;99.90;;;;;;5033206;28;20415;-85
2022/11/10 11:03:44;;;;;;;;;;;12.40;99.90;;;;;;5043149;28;19967;-84
2022/11/10 11:06:15;;;;;;;;;;;12.40;99.90;;;;;;5044894;28;20290;-85
2022/11/10 11:09:04;;;;;;;;;;;12.40;99.90;;;;;;5044214;28;20274;-85
2022/11/10 11:11:40;;;;;;;;;;;12.40;99.90;;;;;;5032657;28;19928;-85
2022/11/10 11:14:13;;;;;;;;;;;12.50;99.90;;;;;;5032199;28;19982;-85
2022/11/10 11:16:49;;;;;;;;;;;12.60;99.90;;;;;;5049467;28;20376;-84
2022/11/10 11:19:15;;;;;;;;;;;12.70;99.90;;;;;;5040782;28;20011;-85
2022/11/10 11:21:46;;;;;;;;;;;12.70;99.90;;;;;;5049543;28;19983;-85
2022/11/10 11:24:15;;;;;;;;;;;12.80;99.90;;;;;;5049291;28;19989;-85
2022/11/10 11:26:41;;;;;;;;;;;12.90;99.90;;;;;;5049401;28;19944;-85
2022/11/10 11:29:29;;;;;;;;;;;12.90;99.90;;;;;;5044455;28;20374;-85
2022/11/10 11:32:06;;;;;;;;;;;12.90;99.90;;;;;;5037136;28;19920;-85
2022/11/10 11:34:38;;;;;;;;;;;12.90;99.90;;;;;;5046765;28;19940;-84
2022/11/10 11:37:13;;;;;;;;;;;13.00;99.90;;;;;;5032685;28;19935;-85
2022/11/10 11:39:57;;;;;;;;;;;13.00;99.90;;;;;;5048575;28;19921;-84
2022/11/10 11:42:38;;;;;;;;;;;13.00;99.90;;;;;;5049438;28;20381;-85
2022/11/10 11:45:24;;;;;;;;;;;13.00;99.90;;;;;;5049139;28;19931;-85
2022/11/10 11:48:11;;;;;;;;;;;13.00;99.90;;;;;;5011930;28;19932;-85
2022/11/10 11:50:42;;;;;;;;;;;13.00;99.90;;;;;;5049116;28;19943;-85
2022/11/10 11:53:27;;;;;;;;;;;13.00;99.90;;;;;;5030973;28;19921;-85
2022/11/10 11:55:52;;;;;;;;;;;13.10;99.90;;;;;;5050182;28;19921;-85
2022/11/10 11:58:24;;;;;;;;;;;13.10;99.90;;;;;;5049197;28;19921;-85
2022/11/10 12:00:59;;;;;;;;;;;13.10;99.90;;;;;;5032664;28;19921;-85
2022/11/10 12:03:46;;;;;;;;;;;13.10;99.90;;;;;;5030138;28;19928;-85
2022/11/10 12:06:25;;;;;;;;;;;13.20;99.90;;;;;;5047009;28;19928;-85
2022/11/10 12:08:51;;;;;;;;;;;13.20;99.90;;;;;;5048777;28;19924;-85
2022/11/10 12:11:29;;;;;;;;;;;13.20;99.90;;;;;;5048624;28;19927;-85
2022/11/10 12:14:00;;;;;;;;;;;13.30;99.90;;;;;;5042388;28;19928;-85
2022/11/10 12:16:29;;;;;;;;;;;13.30;99.90;;;;;;5049018;28;19925;-85
2022/11/10 12:19:13;;;;;;;;;;;13.30;99.90;;;;;;5031953;28;19935;-85
2022/11/10 12:21:45;;;;;;;;;;;13.30;99.90;;;;;;5048752;28;19921;-85
2022/11/10 12:24:29;;;;;;;;;;;13.40;99.90;;;;;;5048768;28;19928;-85
2022/11/10 12:26:57;;;;;;;;;;;13.40;99.90;;;;;;5048684;28;19928;-85
2022/11/10 12:29:42;;;;;;;;;;;13.50;99.90;;;;;;5048471;28;19921;-85
2022/11/10 12:32:13;;;;;;;;;;;13.50;99.90;;;;;;5034250;28;20022;-85
2022/11/10 12:34:46;;;;;;;;;;;13.50;99.90;;;;;;5049358;28;19929;-85
2022/11/10 12:37:15;;;;;;;;;;;13.60;99.90;;;;;;5060528;28;19921;-85
2022/11/10 12:39:47;;;;;;;;;;;13.60;99.90;;;;;;5048148;28;19928;-85
2022/11/10 12:42:16;;;;;;;;;;;13.60;99.90;;;;;;5041391;28;19928;-85
2022/11/10 12:44:47;;;;;;;;;;;13.60;99.90;;;;;;5042622;28;20332;-85
2022/11/10 12:47:15;;;;;;;;;;;13.60;99.90;;;;;;5035879;28;19921;-85
2022/11/10 12:49:47;;;;;;;;;;;13.70;99.90;;;;;;5052104;28;20059;-85
2022/11/10 12:52:22;;;;;;;;;;;13.70;99.90;;;;;;5038345;28;19929;-85
2022/11/10 12:54:48;;;;;;;;;;;13.70;99.90;;;;;;5051478;28;19925;-85
2022/11/10 12:57:32;;;;;;;;;;;13.80;99.90;;;;;;5035067;28;20448;-85
2022/11/10 12:59:57;;;;;;;;;;;13.80;99.90;;;;;;5052021;28;20436;-84
2022/11/10 13:02:26;;;;;;;;;;;13.80;99.90;;;;;;5046104;28;20033;-85
2022/11/10 13:05:10;;;;;;;;;;;13.80;99.90;;;;;;5052247;28;20392;-85
2022/11/10 13:07:36;;;;;;;;;;;13.80;99.90;;;;;;5045057;28;20053;-85
2022/11/10 13:10:34;;;;;;;;;;;13.70;99.90;;;;;;5052369;28;20045;-85
2022/11/10 13:13:05;;;;;;;;;;;13.70;99.90;;;;;;5045769;28;20015;-84
2022/11/10 13:15:34;;;;;;;;;;;13.70;99.90;;;;;;5038581;28;19921;-85
2022/11/10 13:17:59;;;;;;;;;;;13.70;99.90;;;;;;5046957;28;19948;-85
2022/11/10 13:20:40;;;;;;;;;;;13.70;99.90;;;;;;5051983;28;19928;-85
2022/11/10 13:23:26;;;;;;;;;;;13.70;99.90;;;;;;5051497;28;19928;-85
2022/11/10 13:25:59;;;;;;;;;;;13.70;99.90;;;;;;5052081;28;19921;-85
2022/11/10 13:28:44;;;;;;;;;;;13.70;99.90;;;;;;5031386;28;20320;-86
2022/11/10 13:31:27;;;;;;;;;;;13.70;99.90;;;;;;5035304;28;19967;-87
2022/11/10 13:34:12;;;;;;;;;;;13.70;99.90;;;;;;5020590;28;19943;-87
2022/11/10 13:36:42;;;;;;;;;;;13.70;99.90;;;;;;5037649;28;19921;-86
2022/11/10 13:39:23;;;;;;;;;;;13.70;99.90;;;;;;5022242;28;20404;-86
2022/11/10 13:41:54;;;;;;;;;;;13.70;99.90;;;;;;5034182;28;19959;-85
2022/11/10 13:44:20;;;;;;;;;;;13.70;99.90;;;;;;5020841;28;19933;-85
2022/11/10 13:46:56;;;;;;;;;;;13.70;99.90;;;;;;5031486;28;19971;-85
2022/11/10 13:49:46;;;;;;;;;;;13.70;99.90;;;;;;5020779;28;20071;-83
2022/11/10 13:52:17;;;;;;;;;;;13.60;99.90;;;;;;5030360;28;20183;-83
2022/11/10 13:54:57;;;;;;;;;;;13.60;99.90;;;;;;5019952;28;20642;-84
2022/11/10 13:57:26;;;;;;;;;;;13.60;99.90;;;;;;5037494;28;20396;-85
2022/11/10 13:59:56;;;;;;;;;;;13.60;99.90;;;;;;5020099;28;19921;-84
2022/11/10 14:02:40;;;;;;;;;;;13.60;99.90;;;;;;5020284;28;20374;-84
2022/11/10 14:05:26;;;;;;;;;;;13.50;99.90;;;;;;5037156;28;19929;-84
2022/11/10 14:07:52;;;;;;;;;;;13.50;99.90;;;;;;5034039;28;19952;-85
2022/11/10 14:10:24;;;;;;;;;;;13.50;99.90;;;;;;5001412;28;19940;-87
2022/11/10 14:12:54;;;;;;;;;;;13.40;99.90;;;;;;5022991;28;19929;-85
2022/11/10 14:15:22;;;;;;;;;;;13.40;99.90;;;;;;5031602;28;20412;-85
2022/11/10 14:17:48;;;;;;;;;;;13.40;99.90;;;;;;5012572;28;20286;-86
2022/11/10 14:20:33;;;;;;;;;;;13.40;99.90;;;;;;5012419;28;19931;-85
2022/11/10 14:22:59;;;;;;;;;;;13.30;99.90;;;;;;5012219;28;19928;-85
2022/11/10 14:25:29;;;;;;;;;;;13.30;99.90;;;;;;5017490;28;19928;-85
2022/11/10 14:27:54;;;;;;;;;;;13.30;99.90;;;;;;5012697;28;19982;-85
2022/11/10 14:30:25;;;;;;;;;;;13.30;99.90;;;;;;5031142;28;20430;-85
2022/11/10 14:32:58;;;;;;;;;;;13.30;99.90;;;;;;5028213;28;19948;-85
2022/11/10 14:35:26;;;;;;;;;;;13.30;99.90;;;;;;5030793;28;20980;-85
2022/11/10 14:37:55;;;;;;;;;;;13.30;99.90;;;;;;5027961;28;19956;-85
2022/11/10 14:40:21;;;;;;;;;;;13.30;99.90;;;;;;5032062;28;19952;-85
2022/11/10 14:42:47;;;;;;;;;;;13.20;99.90;;;;;;5011793;28;20393;-85
2022/11/10 14:45:14;;;;;;;;;;;13.20;99.90;;;;;;5006839;28;20278;-85